Overview Statistics Trail Chart Weather Telemetry Raw packets
 

This is the latest recevied weather packets stored in our database for station/object IU7URP-17. If no packets are shown the sender has not sent any weather packets the latest 10 day(s).

<< 1 2 3 4 5 >>
Time Temp. Humidity Pressure Rain* Wind** Luminosity Snow
1788636830 25.56° C 53% 1019.3 hPa - - - -
1788635626 25.56° C 51% 1019.1 hPa - - - -
1788634421 26.11° C 51% 1018.9 hPa - - - -
1788633249 26.11° C 49% 1018.8 hPa - - - -
1788632013 26.11° C 47% 1018.6 hPa - - - -
1788630809 26.67° C 44% 1018.4 hPa - - - -
1788627197 29.44° C 38% 1017.9 hPa - - - -
1788625993 31.11° C 33% 1017.8 hPa - - - -
1788624788 31.67° C 35% 1017.7 hPa - - - -
1788623584 32.22° C 33% 1017.7 hPa - - - -
1788622380 33.33° C 29% 1017.8 hPa - - - -
1788621176 33.89° C 30% 1017.8 hPa - - - -
1788619972 34.44° C 31% 1017.9 hPa - - - -
1788618768 34.44° C 31% 1018 hPa - - - -
1788617564 34.44° C 30% 1018.1 hPa - - - -
1788616360 35° C 31% 1018.1 hPa - - - -
1788615156 35.56° C 30% 1018.1 hPa - - - -
1788613952 35.56° C 30% 1018.3 hPa - - - -
1788612748 36.11° C 30% 1018.3 hPa - - - -
1788611544 35.56° C 31% 1018.4 hPa - - - -
1788610340 35.56° C 33% 1018.6 hPa - - - -
1788609135 36.11° C 32% 1018.7 hPa - - - -
1788607931 35.56° C 32% 1018.9 hPa - - - -
1788606727 36.11° C 29% 1018.7 hPa - - - -
1788605523 35.56° C 33% 1018.9 hPa - - - -

* Rain since midnight (hover to see other rain measurements)
** Current wind speed in m/s (hover to see current wind gust speed)